createdAt,value
2022-08-30T00:01:50.466Z,100032.47
2022-08-30T00:04:54.359Z,100033.03
2022-08-30T00:07:57.585Z,100027.59
2022-08-30T00:11:00.363Z,100033.09
2022-08-30T00:14:02.554Z,100036.94
2022-08-30T00:17:04.737Z,100038.94
2022-08-30T00:20:08.701Z,100039.44
2022-08-30T00:23:10.930Z,100032.06
2022-08-30T00:26:13.082Z,100031.63
2022-08-30T00:29:15.231Z,100037.13
2022-08-30T00:32:18.476Z,100033.38
2022-08-30T00:35:20.687Z,100040.38
2022-08-30T00:38:24.274Z,100048.75
2022-08-30T00:41:26.377Z,100043.88
2022-08-30T00:44:28.531Z,100049.03
2022-08-30T00:47:30.639Z,100044.53
2022-08-30T00:50:43.403Z,100046.84
2022-08-30T00:53:50.467Z,100057.38
2022-08-30T00:56:52.554Z,100054.09
2022-08-30T00:59:54.643Z,100053.59
2022-08-30T01:02:56.869Z,100058.38
2022-08-30T01:05:59.034Z,100055.88
2022-08-30T01:09:02.229Z,100064.94
2022-08-30T01:12:05.014Z,100068.88
2022-08-30T01:15:07.693Z,100071.75
2022-08-30T01:18:11.595Z,100072.84
2022-08-30T01:21:41.368Z,100073.06
2022-08-30T01:24:43.794Z,100062.56
2022-08-30T01:27:53.839Z,100074.03
2022-08-30T01:30:56.258Z,100072.31
2022-08-30T01:33:58.390Z,100075.22
2022-08-30T01:37:00.531Z,100065.84
2022-08-30T01:40:03.148Z,100072.75
2022-08-30T01:43:05.307Z,100075.34
2022-08-30T01:46:07.883Z,100066.31
2022-08-30T01:49:13.744Z,100077.88
2022-08-30T01:52:16.238Z,100067.41
2022-08-30T01:55:18.400Z,100064.78
2022-08-30T01:58:20.542Z,100058.28
2022-08-30T02:01:26.227Z,100065.91
2022-08-30T02:04:28.346Z,100075.81
2022-08-30T02:07:30.506Z,100071.47
2022-08-30T02:10:32.750Z,100072.34
2022-08-30T02:13:35.319Z,100067.72
2022-08-30T02:16:37.457Z,100065.69
2022-08-30T02:19:40.235Z,100070.91
2022-08-30T02:22:43.415Z,100071.16
2022-08-30T02:25:53.127Z,100065.22
2022-08-30T02:28:55.313Z,100069.03
2022-08-30T02:31:57.463Z,100068.72
2022-08-30T02:34:59.569Z,100073.88
2022-08-30T02:38:01.690Z,100071.81
2022-08-30T02:41:03.948Z,100065.66
2022-08-30T02:44:07.022Z,100069.41
2022-08-30T02:47:09.155Z,100067.63
2022-08-30T02:50:11.702Z,100066.50
2022-08-30T02:53:14.170Z,100063.03
2022-08-30T02:56:18.476Z,100061.19
2022-08-30T02:59:21.003Z,100059.63
2022-08-30T03:02:23.242Z,100057.53
2022-08-30T03:05:26.144Z,100057.47
2022-08-30T03:08:28.273Z,100053.75
2022-08-30T03:11:30.386Z,100055.81
2022-08-30T03:14:32.885Z,100059.53
2022-08-30T03:17:35.096Z,100062.66
2022-08-30T03:20:37.208Z,100053.53
2022-08-30T03:23:40.875Z,100060.47
2022-08-30T03:26:46.258Z,100061.91
2022-08-30T03:29:48.797Z,100063.13
2022-08-30T03:32:51.408Z,100060.47
2022-08-30T03:35:53.549Z,100059.69
2022-08-30T03:38:55.646Z,100058.31
2022-08-30T03:41:57.768Z,100060.34
2022-08-30T03:45:04.514Z,100065.88
2022-08-30T03:48:06.675Z,100062.41
2022-08-30T03:51:08.831Z,100052.19
2022-08-30T03:54:11.010Z,100054.44
2022-08-30T03:57:13.408Z,100059.72
2022-08-30T04:00:22.519Z,100060.56
2022-08-30T04:03:26.122Z,100055.66
2022-08-30T04:06:28.469Z,100061.16
2022-08-30T04:09:31.385Z,100056.47
2022-08-30T04:12:33.454Z,100056.88
2022-08-30T04:15:35.534Z,100068.28
2022-08-30T04:18:37.752Z,100064.84
2022-08-30T04:21:43.115Z,100069.09
2022-08-30T04:24:45.421Z,100062.59
2022-08-30T04:27:47.581Z,100065.63
2022-08-30T04:30:49.649Z,100074.59
2022-08-30T04:33:51.705Z,100074.81
2022-08-30T04:36:53.784Z,100073.53
2022-08-30T04:39:57.693Z,100077.03
2022-08-30T04:43:00.218Z,100079.06
2022-08-30T04:46:05.640Z,100084.13
2022-08-30T04:49:08.191Z,100079.88
2022-08-30T04:52:11.040Z,100083.13
2022-08-30T04:55:16.836Z,100084.56
2022-08-30T04:58:22.049Z,100085.59
2022-08-30T05:01:26.906Z,100080.94
2022-08-30T05:04:29.467Z,100084.78
2022-08-30T05:07:31.887Z,100089.84
2022-08-30T05:10:34.428Z,100098.41
2022-08-30T05:13:36.986Z,100097.00
2022-08-30T05:16:39.757Z,100101.09
2022-08-30T05:19:41.915Z,100100.06
2022-08-30T05:22:53.570Z,100101.53
2022-08-30T05:25:56.222Z,100106.06
2022-08-30T05:28:58.608Z,100100.13
2022-08-30T05:32:00.751Z,100101.56
2022-08-30T05:35:06.574Z,100101.56
2022-08-30T05:38:08.780Z,100111.38
2022-08-30T05:41:12.363Z,100107.88
2022-08-30T05:44:14.446Z,100107.91
2022-08-30T05:47:16.564Z,100110.53
2022-08-30T05:50:18.772Z,100109.94
2022-08-30T05:53:20.839Z,100108.69
2022-08-30T05:56:30.143Z,100105.22
2022-08-30T05:59:32.239Z,100107.28
2022-08-30T06:02:34.317Z,100102.56
2022-08-30T06:05:37.669Z,100106.28
2022-08-30T06:08:40.403Z,100106.66
2022-08-30T06:11:43.698Z,100116.25
2022-08-30T06:14:45.807Z,100113.81
2022-08-30T06:17:48.556Z,100110.53
2022-08-30T06:20:51.336Z,100102.16
2022-08-30T06:23:53.692Z,100111.56
2022-08-30T06:26:55.821Z,100102.41
2022-08-30T06:29:57.907Z,100104.22
2022-08-30T06:33:00.086Z,100102.19
2022-08-30T06:36:07.048Z,100101.75
2022-08-30T06:39:09.247Z,100099.28
2022-08-30T06:42:11.362Z,100099.50
2022-08-30T06:45:15.512Z,100095.59
2022-08-30T06:48:17.807Z,100092.63
2022-08-30T06:51:28.791Z,100096.34
2022-08-30T06:54:31.394Z,100094.16
2022-08-30T06:57:33.502Z,100095.28
2022-08-30T07:00:35.574Z,100100.72
2022-08-30T07:03:38.795Z,100097.38
2022-08-30T07:06:40.884Z,100103.47
2022-08-30T07:09:43.673Z,100112.69
2022-08-30T07:12:45.885Z,100113.44
2022-08-30T07:15:48.132Z,100114.06
2022-08-30T07:18:56.538Z,100115.81
2022-08-30T07:21:58.611Z,100125.09
2022-08-30T07:25:00.934Z,100123.31
2022-08-30T07:28:03.460Z,100127.25
2022-08-30T07:31:06.133Z,100126.06
2022-08-30T07:34:08.862Z,100126.31
2022-08-30T07:37:10.931Z,100123.22
2022-08-30T07:40:20.243Z,100133.06
2022-08-30T07:43:22.395Z,100125.69
2022-08-30T07:46:24.816Z,100120.19
2022-08-30T07:49:26.996Z,100119.53
2022-08-30T07:52:30.835Z,100123.41
2022-08-30T07:55:33.037Z,100122.88
2022-08-30T07:58:37.563Z,100124.34
2022-08-30T08:01:39.722Z,100117.34
2022-08-30T08:04:41.819Z,100119.56
2022-08-30T08:07:43.928Z,100132.03
2022-08-30T08:10:46.429Z,100128.66
2022-08-30T08:13:53.704Z,100135.38
2022-08-30T08:16:56.527Z,100129.81
2022-08-30T08:19:58.688Z,100140.03
2022-08-30T08:23:00.795Z,100139.69
2022-08-30T08:26:03.319Z,100152.13
2022-08-30T08:29:07.521Z,100153.28
2022-08-30T08:32:09.815Z,100153.13
2022-08-30T08:35:11.941Z,100152.72
2022-08-30T08:38:14.097Z,100150.50
2022-08-30T08:42:04.100Z,100147.94
2022-08-30T08:45:14.416Z,100148.63
2022-08-30T08:48:51.790Z,100143.59
2022-08-30T08:52:14.147Z,100138.38
2022-08-30T08:55:19.100Z,100136.13
2022-08-30T08:58:29.859Z,100136.28
2022-08-30T09:01:33.508Z,100136.81
2022-08-30T09:04:37.084Z,100147.69
2022-08-30T09:07:42.647Z,100148.44
2022-08-30T09:10:56.968Z,100145.50
2022-08-30T09:13:59.462Z,100139.66
2022-08-30T09:17:15.799Z,100145.09
2022-08-30T09:20:43.310Z,100147.56
2022-08-30T09:24:01.825Z,100147.53
2022-08-30T09:31:04.457Z,100149.53
2022-08-30T09:34:17.080Z,100148.66
2022-08-30T09:37:36.099Z,100149.81
2022-08-30T09:40:50.163Z,100142.97
2022-08-30T09:44:17.202Z,100147.84
2022-08-30T09:47:28.574Z,100142.41
2022-08-30T09:50:33.620Z,100141.69
2022-08-30T09:58:03.866Z,100143.63
2022-08-30T10:01:36.081Z,100134.41
2022-08-30T10:04:52.843Z,100137.09
2022-08-30T10:08:16.000Z,100142.00
2022-08-30T10:11:50.587Z,100138.03
2022-08-30T10:15:27.978Z,100144.47
2022-08-30T10:18:43.604Z,100149.06
2022-08-30T10:21:58.177Z,100145.47
2022-08-30T10:25:31.262Z,100135.78
2022-08-30T10:29:07.792Z,100129.41
2022-08-30T10:32:35.722Z,100129.88
2022-08-30T10:35:51.146Z,100136.09
2022-08-30T10:38:53.384Z,100134.47
2022-08-30T10:42:13.718Z,100144.06
2022-08-30T10:45:17.110Z,100142.03
2022-08-30T10:48:48.586Z,100147.06
2022-08-30T10:52:12.228Z,100147.75
2022-08-30T10:55:25.845Z,100144.34
2022-08-30T10:58:27.971Z,100142.78
2022-08-30T11:02:20.332Z,100119.38
2022-08-30T11:05:34.573Z,100126.13
2022-08-30T11:09:26.650Z,100119.94
2022-08-30T11:12:41.584Z,100124.72
2022-08-30T11:16:18.844Z,100124.00
2022-08-30T11:19:38.776Z,100122.44
2022-08-30T11:23:18.898Z,100122.91
2022-08-30T11:26:45.876Z,100129.34
2022-08-30T11:29:48.556Z,100127.94
2022-08-30T11:33:46.199Z,100129.34
2022-08-30T11:37:01.506Z,100123.75
2022-08-30T11:40:24.820Z,100127.34
2022-08-30T11:43:40.347Z,100125.25
2022-08-30T11:46:43.227Z,100124.13
2022-08-30T11:50:39.073Z,100122.66
2022-08-30T11:53:50.415Z,100110.88
2022-08-30T11:57:04.459Z,100114.34
2022-08-30T12:00:28.466Z,100118.06
2022-08-30T12:03:32.887Z,100122.66
2022-08-30T12:06:41.080Z,100124.22
2022-08-30T12:09:47.934Z,100132.97
2022-08-30T12:12:51.714Z,100127.81
2022-08-30T12:16:03.365Z,100137.88
2022-08-30T12:19:21.459Z,100134.84
2022-08-30T12:22:23.740Z,100122.81
2022-08-30T12:25:33.883Z,100135.53
2022-08-30T12:28:37.431Z,100132.84
2022-08-30T12:31:58.353Z,100125.00
2022-08-30T12:35:03.790Z,100120.63
2022-08-30T12:38:12.182Z,100132.03
2022-08-30T12:41:19.754Z,100120.19
2022-08-30T12:44:27.510Z,100129.41
2022-08-30T12:47:54.756Z,100130.38
2022-08-30T12:50:59.270Z,100129.06
2022-08-30T12:54:15.064Z,100125.94
2022-08-30T12:57:43.219Z,100129.09
2022-08-30T13:00:47.314Z,100134.19
2022-08-30T13:04:17.297Z,100128.59
2022-08-30T13:07:34.200Z,100142.28
2022-08-30T13:10:37.525Z,100139.53
2022-08-30T13:13:52.602Z,100134.91
2022-08-30T13:17:07.079Z,100134.78
2022-08-30T13:20:12.111Z,100139.38
2022-08-30T13:23:23.145Z,100126.69
2022-08-30T13:26:25.414Z,100127.22
2022-08-30T13:29:29.534Z,100136.91
2022-08-30T13:32:38.744Z,100138.69
2022-08-30T13:35:41.209Z,100133.13
2022-08-30T13:38:43.358Z,100140.81
2022-08-30T13:41:45.482Z,100132.91
2022-08-30T13:44:47.987Z,100142.19
2022-08-30T13:47:50.370Z,100142.09
2022-08-30T13:50:53.638Z,100138.78
2022-08-30T13:53:55.922Z,100137.97
2022-08-30T13:56:59.123Z,100143.31
2022-08-30T14:00:01.271Z,100137.22
2022-08-30T14:03:03.430Z,100128.22
2022-08-30T14:06:31.607Z,100124.16
2022-08-30T14:09:27.686Z,100134.47
2022-08-30T14:16:26.580Z,100130.28
2022-08-30T14:19:18.115Z,100132.75
2022-08-30T14:22:20.746Z,100140.38
2022-08-30T14:25:23.089Z,100141.78
2022-08-30T14:28:28.474Z,100136.97
2022-08-30T14:31:32.649Z,100130.56
2022-08-30T14:34:35.631Z,100129.13
2022-08-30T14:37:37.796Z,100119.19
2022-08-30T14:40:41.479Z,100121.38
2022-08-30T14:43:43.891Z,100122.03
2022-08-30T14:46:46.334Z,100115.94
2022-08-30T14:49:48.473Z,100113.69
2022-08-30T14:52:50.596Z,100117.97
2022-08-30T14:55:52.756Z,100112.38
2022-08-30T14:59:00.320Z,100126.69
2022-08-30T15:02:02.615Z,100124.69
2022-08-30T15:05:06.937Z,100125.03
2022-08-30T15:08:10.727Z,100129.22
2022-08-30T15:11:14.663Z,100130.78
2022-08-30T15:14:17.557Z,100138.00
2022-08-30T15:17:19.686Z,100137.69
2022-08-30T15:20:22.194Z,100116.84
2022-08-30T15:23:24.939Z,100110.66
2022-08-30T15:26:27.531Z,100106.13
2022-08-30T15:29:31.588Z,100109.69
2022-08-30T15:32:33.914Z,100111.63
2022-08-30T15:35:36.088Z,100107.75
2022-08-30T15:38:38.362Z,100112.97
2022-08-30T15:41:44.439Z,100098.91
2022-08-30T15:44:51.367Z,100094.06
2022-08-30T15:47:53.982Z,100089.50
2022-08-30T15:50:59.061Z,100086.84
2022-08-30T15:54:01.176Z,100099.94
2022-08-30T15:57:05.864Z,100094.91
2022-08-30T16:00:10.099Z,100086.28
2022-08-30T16:03:12.398Z,100078.47
2022-08-30T16:06:16.376Z,100080.56
2022-08-30T16:09:18.584Z,100085.03
2022-08-30T16:12:23.660Z,100084.22
2022-08-30T16:15:26.811Z,100080.75
2022-08-30T16:18:29.092Z,100080.97
2022-08-30T16:21:33.023Z,100074.38
2022-08-30T16:24:35.116Z,100077.03
2022-08-30T16:27:42.156Z,100078.66
2022-08-30T16:30:44.314Z,100076.66
2022-08-30T16:33:47.615Z,100076.44
2022-08-30T16:36:55.087Z,100081.63
2022-08-30T16:39:57.245Z,100071.03
2022-08-30T16:42:59.343Z,100071.09
2022-08-30T16:46:03.415Z,100075.03
2022-08-30T16:49:05.692Z,100069.50
2022-08-30T16:52:11.462Z,100068.66
2022-08-30T16:55:13.793Z,100064.97
2022-08-30T16:58:18.851Z,100077.53
2022-08-30T17:01:22.201Z,100083.75
2022-08-30T17:04:24.378Z,100078.88
2022-08-30T17:07:27.356Z,100080.56
2022-08-30T17:10:33.367Z,100075.53
2022-08-30T17:13:35.727Z,100080.00
2022-08-30T17:16:38.404Z,100090.38
2022-08-30T17:19:43.090Z,100074.19
2022-08-30T17:22:46.223Z,100079.06
2022-08-30T17:25:48.819Z,100069.75
2022-08-30T17:28:50.949Z,100073.16
2022-08-30T17:31:53.127Z,100075.16
2022-08-30T17:34:55.282Z,100076.59
2022-08-30T17:37:57.450Z,100072.75
2022-08-30T17:41:07.833Z,100069.44
2022-08-30T17:44:12.128Z,100079.75
2022-08-30T17:47:14.438Z,100081.78
2022-08-30T17:50:19.429Z,100071.69
2022-08-30T17:53:21.695Z,100070.84
2022-08-30T17:56:34.148Z,100075.09
2022-08-30T17:59:37.630Z,100090.16
2022-08-30T18:02:39.828Z,100081.94
2022-08-30T18:05:43.719Z,100087.97
2022-08-30T18:08:49.024Z,100092.34
2022-08-30T18:11:56.248Z,100093.09
2022-08-30T18:14:58.757Z,100099.34
2022-08-30T18:18:00.976Z,100104.63
2022-08-30T18:21:16.651Z,100107.16
2022-08-30T18:24:18.992Z,100104.56
2022-08-30T18:27:21.305Z,100116.09
2022-08-30T18:30:33.226Z,100117.81
2022-08-30T18:33:36.848Z,100124.56
2022-08-30T18:36:41.345Z,100124.19
2022-08-30T18:39:43.571Z,100135.28
2022-08-30T18:42:45.693Z,100132.72
2022-08-30T18:45:50.838Z,100139.19
2022-08-30T18:48:52.965Z,100137.81
2022-08-30T18:51:55.066Z,100140.50
2022-08-30T18:54:57.199Z,100143.66
2022-08-30T18:58:02.528Z,100147.47
2022-08-30T19:01:04.851Z,100150.31
2022-08-30T19:04:07.095Z,100154.97
2022-08-30T19:07:11.107Z,100168.25
2022-08-30T19:10:15.669Z,100164.09
2022-08-30T19:13:23.411Z,100169.09
2022-08-30T19:16:26.258Z,100171.75
2022-08-30T19:19:28.391Z,100173.16
2022-08-30T19:22:44.575Z,100173.50
2022-08-30T19:25:53.395Z,100171.34
2022-08-30T19:28:56.404Z,100184.66
2022-08-30T19:31:58.471Z,100179.38
2022-08-30T19:35:00.773Z,100175.56
2022-08-30T19:38:02.951Z,100183.22
2022-08-30T19:41:05.315Z,100191.75
2022-08-30T19:44:07.482Z,100187.75
2022-08-30T19:47:09.677Z,100202.41
2022-08-30T19:50:12.758Z,100206.38
2022-08-30T19:53:14.827Z,100203.22
2022-08-30T19:56:16.919Z,100206.59
2022-08-30T19:59:19.366Z,100201.78
2022-08-30T20:02:22.384Z,100199.63
2022-08-30T20:05:24.515Z,100196.22
2022-08-30T20:08:26.600Z,100194.75
2022-08-30T20:11:28.765Z,100203.41
2022-08-30T20:14:30.962Z,100196.03
2022-08-30T20:17:47.819Z,100203.34
2022-08-30T20:20:55.351Z,100195.38
2022-08-30T20:23:57.415Z,100212.03
2022-08-30T20:26:59.487Z,100205.31
2022-08-30T20:30:03.892Z,100212.41
2022-08-30T20:33:08.996Z,100208.13
2022-08-30T20:36:11.406Z,100219.94
2022-08-30T20:39:17.393Z,100216.50
2022-08-30T20:42:20.472Z,100212.06
2022-08-30T20:45:22.553Z,100212.47
2022-08-30T20:48:27.103Z,100200.97
2022-08-30T20:51:29.299Z,100210.34
2022-08-30T20:54:31.867Z,100212.81
2022-08-30T20:57:34.111Z,100209.94
2022-08-30T21:00:36.339Z,100207.09
2022-08-30T21:03:38.999Z,100210.84
2022-08-30T21:06:41.076Z,100221.59
2022-08-30T21:09:43.275Z,100216.91
2022-08-30T21:12:45.393Z,100218.75
2022-08-30T21:15:55.417Z,100221.38
2022-08-30T21:19:03.470Z,100221.41
2022-08-30T21:22:05.775Z,100224.03
2022-08-30T21:25:08.397Z,100222.41
2022-08-30T21:28:10.616Z,100217.94
2022-08-30T21:31:17.020Z,100227.94
2022-08-30T21:34:19.200Z,100224.22
2022-08-30T21:37:21.894Z,100231.16
2022-08-30T21:40:24.003Z,100234.44
2022-08-30T21:43:26.145Z,100226.28
2022-08-30T21:46:32.367Z,100222.78
2022-08-30T21:49:34.708Z,100225.03
2022-08-30T21:52:36.871Z,100227.47
2022-08-30T21:55:38.983Z,100220.31
2022-08-30T21:58:41.584Z,100216.81
2022-08-30T22:01:43.799Z,100230.72
2022-08-30T22:04:45.939Z,100224.00
2022-08-30T22:07:48.023Z,100229.50
2022-08-30T22:10:50.308Z,100227.81
2022-08-30T22:13:53.042Z,100228.03
2022-08-30T22:16:55.222Z,100229.88
2022-08-30T22:19:57.402Z,100234.31
2022-08-30T22:22:59.464Z,100227.44
2022-08-30T22:26:01.826Z,100244.19
2022-08-30T22:29:05.645Z,100241.09
2022-08-30T22:32:08.382Z,100232.56
2022-08-30T22:35:11.005Z,100230.09
2022-08-30T22:38:14.538Z,100235.47
2022-08-30T22:41:18.125Z,100235.25
2022-08-30T22:44:20.230Z,100228.97
2022-08-30T22:47:22.344Z,100231.66
2022-08-30T22:50:24.415Z,100230.00
2022-08-30T22:53:26.515Z,100233.28
2022-08-30T22:56:28.795Z,100230.03
2022-08-30T22:59:32.240Z,100224.09
2022-08-30T23:02:35.097Z,100230.38
2022-08-30T23:05:37.518Z,100239.00
2022-08-30T23:08:39.647Z,100237.97
2022-08-30T23:11:41.738Z,100231.41
2022-08-30T23:14:43.819Z,100241.84
2022-08-30T23:17:45.925Z,100235.88
2022-08-30T23:20:48.038Z,100236.28
2022-08-30T23:24:09.668Z,100238.75
2022-08-30T23:27:30.380Z,100233.22
2022-08-30T23:30:51.696Z,100237.91
2022-08-30T23:34:12.607Z,100232.44
2022-08-30T23:37:33.508Z,100232.84
2022-08-30T23:40:54.499Z,100227.53
2022-08-30T23:44:15.356Z,100228.53
2022-08-30T23:47:36.340Z,100231.97
2022-08-30T23:50:57.040Z,100233.22
2022-08-30T23:54:18.042Z,100229.91
2022-08-30T23:57:38.819Z,100233.41
